Menalon — SXCH — position and weather

sailwx.info

Track history (hours):
 
Tides and Currents Weather Stations Pressure Air Temp Water Temp Dewpoint Dewpoint Depression Visibility Wind Speed Wind Dir Waves Ship Positions

Menalon

Last reported at 2017-Apr-23 23:39 UTC. Time now 2017-Apr-25 16:32 UTC.
Position N 37°32' E 023°42'.

Length 83 m; draft 5 m.

Type: Ship (hazmat cat C). MMSI: 239741000.

Date/timePositionNaut miles runAvg speedWind from/ knotsBaromVisibWave heightAir tempDewpointWater temp
2017-Apr-23 23:39N 37°32' E 023°42'3 9.9
2017-Apr-23 23:20N 37°36' E 023°42'3 9.9
2017-Apr-23 23:00N 37°39' E 023°42'5 9.6
2017-Apr-23 22:30N 37°43' E 023°40'5 9.6
2017-Apr-23 22:00N 37°48' E 023°38'4 8.6
2017-Apr-23 21:30N 37°50' E 023°33'5 9.4
2017-Apr-23 21:00N 37°51' E 023°27'5 9.3
2017-Apr-23 20:30N 37°54' E 023°23'4 8.7
2017-Apr-23 20:00N 37°58' E 023°25'3 6.2
2017-Apr-23 19:30N 38°00' E 023°28'3 6.0
2017-Apr-23 19:00N 38°01' E 023°31'0 0.0
2017-Apr-23 18:30N 38°01' E 023°31'0 0.0
2017-Apr-23 18:00N 38°01' E 023°31'0 0.0
2017-Apr-23 17:30N 38°01' E 023°31'0 0.1
2017-Apr-23 17:00N 38°01' E 023°31'0 0.0
2017-Apr-23 16:30N 38°01' E 023°31'0 0.1
2017-Apr-23 16:00N 38°01' E 023°31'0 0.0
2017-Apr-23 15:30N 38°01' E 023°31'0 0.0
2017-Apr-23 15:00N 38°01' E 023°31'1 0.8
2017-Apr-23 14:00N 38°02' E 023°32'0 0.0
2017-Apr-23 13:30N 38°02' E 023°32'0 0.0
2017-Apr-23 13:00N 38°02' E 023°32'0 0.0
2017-Apr-23 12:30N 38°02' E 023°32'0 0.0
2017-Apr-23 12:00N 38°02' E 023°32'0 0.0
2017-Apr-23 11:30N 38°02' E 023°32'0 0.0
2017-Apr-23 11:00N 38°02' E 023°32'0 0.0
2017-Apr-23 10:30N 38°02' E 023°32'0 0.0
2017-Apr-23 10:00N 38°02' E 023°32'0 0.0
2017-Apr-23 09:30N 38°02' E 023°32'0 0.0
2017-Apr-23 09:00N 38°02' E 023°32'0 0.0
2017-Apr-23 08:30N 38°02' E 023°32'0 0.0
2017-Apr-23 08:00N 38°02' E 023°32'0 0.0
2017-Apr-23 07:30N 38°02' E 023°32'0 0.2
2017-Apr-23 07:00N 38°02' E 023°32'0 0.1
2017-Apr-23 06:31N 38°02' E 023°32'0 0.1
2017-Apr-23 06:00N 38°02' E 023°32'0 0.0
2017-Apr-23 05:30N 38°02' E 023°32'0 0.0
2017-Apr-23 05:00N 38°02' E 023°32'0 0.1
2017-Apr-23 04:30N 38°02' E 023°32'0 0.0
2017-Apr-23 04:00N 38°02' E 023°32'0 0.0
2017-Apr-23 03:30N 38°02' E 023°32'0 0.0
2017-Apr-23 03:00N 38°02' E 023°32'0 0.0
2017-Apr-23 02:31N 38°02' E 023°32'0 0.0
2017-Apr-23 02:00N 38°02' E 023°32'0 0.0
2017-Apr-23 01:30N 38°02' E 023°32'0 0.0
2017-Apr-23 01:01N 38°02' E 023°32'0 0.0
2017-Apr-23 00:30N 38°02' E 023°32'0 0.0
2017-Apr-23 00:01N 38°02' E 023°32'0 0.0
2017-Apr-22 23:30N 38°02' E 023°32'0 0.0
2017-Apr-22 23:00N 38°02' E 023°32'0 0.0
2017-Apr-22 22:30N 38°02' E 023°32'0 0.0
2017-Apr-22 22:00N 38°02' E 023°32'0 0.0
2017-Apr-22 21:30N 38°02' E 023°32'0 0.0
2017-Apr-22 21:00N 38°02' E 023°32'0 0.1
2017-Apr-22 20:30N 38°02' E 023°32'0 0.1
2017-Apr-22 20:00N 38°02' E 023°32'0 0.0
2017-Apr-22 19:30N 38°02' E 023°32'0 0.0
2017-Apr-22 19:01N 38°02' E 023°32'0 0.0
2017-Apr-22 18:30N 38°02' E 023°32'0 0.0
2017-Apr-22 18:00N 38°02' E 023°32'0 0.0
2017-Apr-22 17:30N 38°02' E 023°32'0 0.0
2017-Apr-22 17:00N 38°02' E 023°32'0 0.1
2017-Apr-22 16:30N 38°02' E 023°32'0 0.2
2017-Apr-22 16:01N 38°02' E 023°32'0 0.0
2017-Apr-22 15:31N 38°02' E 023°32'0 0.0
2017-Apr-22 15:00N 38°02' E 023°32'0 0.0
2017-Apr-22 14:30N 38°02' E 023°32'1 1.3
2017-Apr-22 13:30N 38°01' E 023°34'2 3.4
2017-Apr-22 13:00N 38°02' E 023°36'0 0.0
2017-Apr-22 12:30N 38°02' E 023°36'0 0.0
2017-Apr-22 12:00N 38°02' E 023°36'0 0.0
2017-Apr-22 11:30N 38°02' E 023°36'0 0.0
2017-Apr-22 11:00N 38°02' E 023°36'0 0.0
2017-Apr-22 10:30N 38°02' E 023°36'0 0.0
2017-Apr-22 10:00N 38°02' E 023°36'0 0.0
2017-Apr-22 09:30N 38°02' E 023°36'0 0.0
2017-Apr-22 09:00N 38°02' E 023°36'0 0.0
2017-Apr-22 08:31N 38°02' E 023°36'0 0.0
2017-Apr-22 08:01N 38°02' E 023°36'0 0.0
2017-Apr-22 07:30N 38°02' E 023°36'0 0.0
2017-Apr-22 07:00N 38°02' E 023°36'0 0.0
2017-Apr-22 06:30N 38°02' E 023°36'0 0.0
2017-Apr-22 06:00N 38°02' E 023°36'0 0.0
2017-Apr-22 05:30N 38°02' E 023°36'0 0.0
2017-Apr-22 05:00N 38°02' E 023°36'0 0.9
2017-Apr-22 04:30N 38°02' E 023°35'0 0.1
2017-Apr-22 04:00N 38°02' E 023°35'2 4.0
2017-Apr-22 03:30N 38°00' E 023°33'4 7.1
2017-Apr-22 03:00N 37°57' E 023°35'1 2.0
2017-Apr-22 02:30N 37°58' E 023°36'0 0.0
2017-Apr-22 02:00N 37°58' E 023°36'0 0.0
2017-Apr-22 01:30N 37°58' E 023°36'0 0.0
2017-Apr-22 01:00N 37°58' E 023°36'0 0.0
2017-Apr-22 00:30N 37°58' E 023°36'0 0.0
2017-Apr-22 00:00N 37°58' E 023°36'0 0.0
2017-Apr-21 23:30N 37°58' E 023°36'0 0.2
2017-Apr-21 23:00N 37°57' E 023°36'3 5.2
2017-Apr-21 22:30N 37°56' E 023°34'5 9.8
2017-Apr-21 22:00N 37°52' E 023°29'4 8.9
2017-Apr-21 21:31N 37°53' E 023°24'4 8.2
2017-Apr-21 21:00N 37°57' E 023°24'4 7.4
2017-Apr-21 20:30N 38°00' E 023°27'3 5.7
2017-Apr-21 20:01N 38°01' E 023°31'0 0.0
2017-Apr-21 19:30N 38°01' E 023°31'0 0.0
2017-Apr-21 19:00N 38°01' E 023°31'0 0.1
2017-Apr-21 18:30N 38°01' E 023°31'0 0.1
2017-Apr-21 18:00N 38°01' E 023°31'0 0.1
2017-Apr-21 17:30N 38°01' E 023°31'0 0.1
2017-Apr-21 17:00N 38°01' E 023°31'0 0.0
2017-Apr-21 16:30N 38°01' E 023°31'0 0.0
2017-Apr-21 16:00N 38°01' E 023°31'0 0.0
2017-Apr-21 15:30N 38°01' E 023°31'0 0.0
2017-Apr-21 15:00N 38°01' E 023°31'0 0.3
2017-Apr-21 14:30N 38°01' E 023°31'1 0.9
2017-Apr-21 13:30N 38°01' E 023°32'0 0.0
2017-Apr-21 13:00N 38°01' E 023°32'0 0.0
2017-Apr-21 12:30N 38°01' E 023°32'0 0.1
2017-Apr-21 12:00N 38°01' E 023°32'0 0.0
2017-Apr-21 11:30N 38°01' E 023°32'0 0.1
2017-Apr-21 11:00N 38°01' E 023°32'0 0.0
2017-Apr-21 10:30N 38°01' E 023°32'0 0.0
2017-Apr-21 10:00N 38°01' E 023°32'0 0.0
2017-Apr-21 09:30N 38°01' E 023°32'0 0.1
2017-Apr-21 09:00N 38°01' E 023°32'4 7.9
2017-Apr-21 08:30N 37°57' E 023°34'2 3.2
2017-Apr-21 08:00N 37°56' E 023°34'0 0.0
2017-Apr-21 07:30N 37°56' E 023°34'0 0.0
2017-Apr-21 07:00N 37°56' E 023°34'0 0.0
2017-Apr-21 06:30N 37°56' E 023°34'0 0.0
2017-Apr-21 06:00N 37°56' E 023°34'0 0.0
2017-Apr-21 05:30N 37°56' E 023°34'0 0.0
2017-Apr-21 05:00N 37°56' E 023°34'0 0.0
2017-Apr-21 04:30N 37°56' E 023°34'0 0.0
2017-Apr-21 04:00N 37°56' E 023°34'0 0.0
2017-Apr-21 03:30N 37°56' E 023°34'0 0.0
2017-Apr-21 03:00N 37°56' E 023°34'0 0.0
2017-Apr-21 02:30N 37°56' E 023°34'0 0.0
2017-Apr-21 02:00N 37°56' E 023°34'0 0.0
2017-Apr-21 01:30N 37°56' E 023°34'0 0.0
2017-Apr-21 01:00N 37°56' E 023°34'0 0.0
2017-Apr-21 00:30N 37°56' E 023°34'0 0.0
2017-Apr-21 00:00N 37°56' E 023°34'0 0.0
2017-Apr-20 23:30N 37°56' E 023°34'0 0.0
2017-Apr-20 23:00N 37°56' E 023°34'0 0.0
2017-Apr-20 22:30N 37°56' E 023°34'0 0.0
2017-Apr-20 22:00N 37°56' E 023°34'0 0.0
2017-Apr-20 21:31N 37°56' E 023°34'0 0.0
2017-Apr-20 21:00N 37°56' E 023°34'0 0.0
2017-Apr-20 20:30N 37°56' E 023°34'0 0.0
2017-Apr-20 20:00N 37°56' E 023°34'0 0.0
2017-Apr-20 19:30N 37°56' E 023°34'0 0.0
2017-Apr-20 19:00N 37°56' E 023°34'0 0.0
2017-Apr-20 18:30N 37°56' E 023°34'0 0.0
2017-Apr-20 18:00N 37°56' E 023°34'0 0.0
2017-Apr-20 17:30N 37°56' E 023°34'0 0.1
2017-Apr-20 17:00N 37°56' E 023°34'0 0.1
2017-Apr-20 16:30N 37°56' E 023°34'0 0.0
2017-Apr-20 16:00N 37°56' E 023°34'0 0.0
2017-Apr-20 15:30N 37°56' E 023°34'0 0.0
2017-Apr-20 15:00N 37°56' E 023°34'0 0.0
2017-Apr-20 14:30N 37°56' E 023°34'0 0.0
2017-Apr-20 13:30N 37°56' E 023°34'0 0.0
2017-Apr-20 13:00N 37°56' E 023°34'0 0.0
2017-Apr-20 12:30N 37°56' E 023°34'0 0.0
2017-Apr-20 12:00N 37°56' E 023°34'0 0.0
2017-Apr-20 11:30N 37°56' E 023°34'0 0.0
2017-Apr-20 11:00N 37°56' E 023°34'0 0.1
2017-Apr-20 10:30N 37°56' E 023°34'3 5.7
2017-Apr-20 10:00N 37°53' E 023°33'1 1.6
2017-Apr-20 09:30N 37°52' E 023°33'0 0.4
2017-Apr-20 09:00N 37°52' E 023°33'0 0.0
2017-Apr-20 08:30N 37°52' E 023°33'0 0.0
2017-Apr-20 08:00N 37°52' E 023°33'0 0.0
2017-Apr-20 07:30N 37°52' E 023°33'0 0.3
2017-Apr-20 07:00N 37°52' E 023°33'0 0.2
2017-Apr-20 06:30N 37°52' E 023°33'3 6.5
2017-Apr-20 06:00N 37°52' E 023°28'5 9.5
2017-Apr-20 05:30N 37°52' E 023°22'5 9.3
2017-Apr-20 05:00N 37°53' E 023°17'5 9.5
2017-Apr-20 04:30N 37°54' E 023°11'4 8.6
2017-Apr-20 04:00N 37°55' E 023°05'0 0.2
2017-Apr-20 03:30N 37°55' E 023°05'0 0.0
2017-Apr-20 02:59N 37°55' E 023°05'0 0.0
2017-Apr-20 02:30N 37°55' E 023°05'0 0.0
2017-Apr-20 02:00N 37°55' E 023°05'0 0.0
2017-Apr-20 01:30N 37°55' E 023°05'0 0.0
2017-Apr-20 01:00N 37°55' E 023°05'0 0.0
2017-Apr-20 00:30N 37°55' E 023°05'0 0.0
2017-Apr-20 00:00N 37°55' E 023°05'0 0.0
2017-Apr-19 23:30N 37°55' E 023°05'0 0.0
2017-Apr-19 23:00N 37°55' E 023°05'0 0.0
2017-Apr-19 22:30N 37°55' E 023°05'0 0.0
2017-Apr-19 22:00N 37°55' E 023°05'0 0.0
2017-Apr-19 21:30N 37°55' E 023°05'0 0.0
2017-Apr-19 21:00N 37°55' E 023°05'0 0.0
2017-Apr-19 20:30N 37°55' E 023°05'0 0.0
2017-Apr-19 20:00N 37°55' E 023°05'0 0.0
2017-Apr-19 19:30N 37°55' E 023°05'0 0.0
2017-Apr-19 19:00N 37°55' E 023°05'0 0.0
2017-Apr-19 18:30N 37°55' E 023°05'0 0.0
2017-Apr-19 18:00N 37°55' E 023°05'0 0.0
2017-Apr-19 17:28N 37°55' E 023°05'0 0.0
2017-Apr-19 17:00N 37°55' E 023°05'1 1.2
2017-Apr-19 16:30N 37°55' E 023°06'5 9.3
2017-Apr-19 16:00N 37°55' E 023°12'510.2
2017-Apr-19 15:30N 37°54' E 023°18'510.2
2017-Apr-19 15:00N 37°53' E 023°24'5 9.1
2017-Apr-19 14:30N 37°53' E 023°30'6 5.8
2017-Apr-19 13:30N 37°57' E 023°35'0 0.0
2017-Apr-19 13:00N 37°57' E 023°35'0 0.0
2017-Apr-19 12:30N 37°57' E 023°35'0 0.0
2017-Apr-19 12:00N 37°57' E 023°35'0 0.0
2017-Apr-19 11:30N 37°57' E 023°35'0 0.0
2017-Apr-19 11:00N 37°57' E 023°35'0 0.0
2017-Apr-19 10:30N 37°57' E 023°35'0 0.0
2017-Apr-19 10:00N 37°57' E 023°35'0 0.0
2017-Apr-19 09:30N 37°57' E 023°35'0 0.0
2017-Apr-19 09:00N 37°57' E 023°35'0 0.1
2017-Apr-19 08:30N 37°57' E 023°35'0 0.1
2017-Apr-19 08:00N 37°57' E 023°35'0 0.0
2017-Apr-19 07:30N 37°57' E 023°35'0 0.2
2017-Apr-19 07:00N 37°57' E 023°35'0 0.2
2017-Apr-19 06:30N 37°57' E 023°35'0 0.0
2017-Apr-19 06:00N 37°57' E 023°35'1 1.5
2017-Apr-19 05:30N 37°57' E 023°35'1 3.0
2017-Apr-19 05:00N 37°56' E 023°33'0 0.0
2017-Apr-19 04:30N 37°56' E 023°33'0 0.0
2017-Apr-19 04:00N 37°56' E 023°33'0 0.0
2017-Apr-19 03:30N 37°56' E 023°33'0 0.0
2017-Apr-19 03:00N 37°56' E 023°33'0 0.0
2017-Apr-19 02:30N 37°56' E 023°33'0 0.0
2017-Apr-19 02:00N 37°56' E 023°33'0 0.0
2017-Apr-19 01:30N 37°56' E 023°33'0 0.0
2017-Apr-19 01:00N 37°56' E 023°33'0 0.0
2017-Apr-19 00:30N 37°56' E 023°33'0 0.0
2017-Apr-19 00:00N 37°56' E 023°33'0 0.0
2017-Apr-18 23:30N 37°56' E 023°33'0 0.0
2017-Apr-18 23:00N 37°56' E 023°33'0 0.0
2017-Apr-18 22:30N 37°56' E 023°33'0 0.0
2017-Apr-18 22:00N 37°56' E 023°33'0 0.0
2017-Apr-18 21:30N 37°56' E 023°33'0 0.0
2017-Apr-18 21:00N 37°56' E 023°33'0 0.0
2017-Apr-18 20:30N 37°56' E 023°33'0 0.0
2017-Apr-18 20:00N 37°56' E 023°33'0 0.0
2017-Apr-18 19:30N 37°56' E 023°33'0 0.0
2017-Apr-18 19:00N 37°56' E 023°33'0 0.0
2017-Apr-18 18:30N 37°56' E 023°33'0 0.0
2017-Apr-18 18:01N 37°56' E 023°33'0 0.0
2017-Apr-18 17:30N 37°56' E 023°33'0 0.0
2017-Apr-18 17:00N 37°56' E 023°33'0 0.0
2017-Apr-18 16:30N 37°56' E 023°33'0 0.0
2017-Apr-18 16:00N 37°56' E 023°33'0 0.0
2017-Apr-18 15:30N 37°56' E 023°33'0 0.0
2017-Apr-18 15:00N 37°56' E 023°33'0 0.0
2017-Apr-18 14:30N 37°56' E 023°33'0 0.0
2017-Apr-18 13:30N 37°56' E 023°33'0 0.0
2017-Apr-18 13:00N 37°56' E 023°33'0 0.0
2017-Apr-18 12:30N 37°56' E 023°33'0 0.0
2017-Apr-18 12:00N 37°56' E 023°33'0 0.0
2017-Apr-18 11:30N 37°56' E 023°33'0 0.0
2017-Apr-18 11:00N 37°56' E 023°33'0 0.0
2017-Apr-18 10:30N 37°56' E 023°33'0 0.1
2017-Apr-18 10:00N 37°56' E 023°33'2 3.0
2017-Apr-18 09:30N 37°57' E 023°35'1 2.9
2017-Apr-18 09:00N 37°58' E 023°36'0 0.0
2017-Apr-18 08:30N 37°58' E 023°36'0 0.0
2017-Apr-18 08:00N 37°58' E 023°36'0 0.0
2017-Apr-18 07:30N 37°58' E 023°36'0 0.0
2017-Apr-18 07:00N 37°58' E 023°36'0 0.0
2017-Apr-18 06:30N 37°58' E 023°36'0 0.0
2017-Apr-18 06:00N 37°58' E 023°36'1 1.2
2017-Apr-18 05:30N 37°57' E 023°36'1 2.1
2017-Apr-18 05:00N 37°57' E 023°35'1 1.6
2017-Apr-18 04:31N 37°56' E 023°34'0 0.0
2017-Apr-18 04:00N 37°56' E 023°34'0 0.0
2017-Apr-18 03:31N 37°56' E 023°34'0 0.1
2017-Apr-18 03:00N 37°56' E 023°34'0 0.0
2017-Apr-18 02:30N 37°56' E 023°34'0 0.0
2017-Apr-18 02:00N 37°56' E 023°34'0 0.0
2017-Apr-18 01:30N 37°56' E 023°34'0 0.0
2017-Apr-18 01:00N 37°56' E 023°34'0 0.0
2017-Apr-18 00:30N 37°56' E 023°34'0 0.0
2017-Apr-18 00:00N 37°56' E 023°34'0 0.0
2017-Apr-17 23:30N 37°56' E 023°34'0 0.0
2017-Apr-17 23:00N 37°56' E 023°34'0 0.0
2017-Apr-17 22:30N 37°56' E 023°34'0 0.1
2017-Apr-17 22:00N 37°56' E 023°34'0 0.1
2017-Apr-17 21:30N 37°56' E 023°34'0 0.0
2017-Apr-17 21:00N 37°56' E 023°34'0 0.0
2017-Apr-17 20:30N 37°56' E 023°34'0 0.0
2017-Apr-17 20:00N 37°56' E 023°34'0 0.0
2017-Apr-17 19:30N 37°56' E 023°34'0 0.0
2017-Apr-17 19:00N 37°56' E 023°34'0 0.0
2017-Apr-17 18:30N 37°56' E 023°34'0 0.0
2017-Apr-17 18:00N 37°56' E 023°34'0 0.0
2017-Apr-17 17:30N 37°56' E 023°34'0 0.1
2017-Apr-17 17:00N 37°56' E 023°34'0 0.0
2017-Apr-17 16:30N 37°56' E 023°34'0 0.0
2017-Apr-17 16:00N 37°56' E 023°34'0 0.0
2017-Apr-17 15:30N 37°56' E 023°34'0 0.1
2017-Apr-17 15:00N 37°56' E 023°34'0 0.1
2017-Apr-17 14:30N 37°56' E 023°34'0 0.0
2017-Apr-17 13:30N 37°56' E 023°34'0 0.6
2017-Apr-17 13:01N 37°56' E 023°34'4 8.2
2017-Apr-17 12:30N 37°52' E 023°31'1 1.2
2017-Apr-17 12:00N 37°52' E 023°31'0 0.0
2017-Apr-17 11:30N 37°52' E 023°31'0 0.0
2017-Apr-17 11:00N 37°52' E 023°31'0 0.0
2017-Apr-17 10:30N 37°52' E 023°31'0 0.0
2017-Apr-17 10:00N 37°52' E 023°31'0 0.0
2017-Apr-17 09:30N 37°52' E 023°31'0 0.0
2017-Apr-17 09:00N 37°52' E 023°31'0 0.0
2017-Apr-17 08:30N 37°52' E 023°31'0 0.0
2017-Apr-17 08:00N 37°52' E 023°31'0 0.0
2017-Apr-17 07:30N 37°52' E 023°31'0 0.0
2017-Apr-17 07:00N 37°52' E 023°31'0 0.0
2017-Apr-17 06:30N 37°52' E 023°31'0 0.0
2017-Apr-17 06:00N 37°52' E 023°31'1 2.8
2017-Apr-17 05:30N 37°53' E 023°32'4 7.3
2017-Apr-17 05:00N 37°56' E 023°34'0 0.1
2017-Apr-17 04:30N 37°56' E 023°34'0 0.0
2017-Apr-17 04:00N 37°56' E 023°34'0 0.0
2017-Apr-17 03:30N 37°56' E 023°34'0 0.0
2017-Apr-17 03:00N 37°56' E 023°34'0 0.0
2017-Apr-17 02:30N 37°56' E 023°34'0 0.0
2017-Apr-17 02:00N 37°56' E 023°34'0 0.1
2017-Apr-17 01:30N 37°56' E 023°34'0 0.0
2017-Apr-17 01:00N 37°56' E 023°34'0 0.0
2017-Apr-17 00:30N 37°56' E 023°34'0 0.0
2017-Apr-17 00:00N 37°56' E 023°34'0 0.1
2017-Apr-16 23:30N 37°56' E 023°34'0 0.1
2017-Apr-16 23:00N 37°56' E 023°34'0 0.1
2017-Apr-16 22:30N 37°56' E 023°34'0 0.0
2017-Apr-16 22:00N 37°56' E 023°34'0 0.0
2017-Apr-16 21:30N 37°56' E 023°34'0 0.0
2017-Apr-16 21:00N 37°56' E 023°34'0 0.0
2017-Apr-16 20:30N 37°56' E 023°34'0 0.0
2017-Apr-16 20:00N 37°56' E 023°34'0 0.0
2017-Apr-16 19:30N 37°56' E 023°34'0 0.0
2017-Apr-16 19:00N 37°56' E 023°34'0 0.0
2017-Apr-16 18:30N 37°56' E 023°34'0 0.0
2017-Apr-16 18:00N 37°56' E 023°34'0 0.0
2017-Apr-16 17:30N 37°56' E 023°34'0 0.0
2017-Apr-16 16:59N 37°56' E 023°34'0 0.0
2017-Apr-16 16:31N 37°56' E 023°34'0 0.0
2017-Apr-16 16:00N 37°56' E 023°34'0 0.0
2017-Apr-16 15:29N 37°56' E 023°34'0 0.0
2017-Apr-16 15:00N 37°56' E 023°34'0 0.0
2017-Apr-16 14:30N 37°56' E 023°34'0 0.0
2017-Apr-16 13:30N 37°56' E 023°34'0 0.0
2017-Apr-16 13:00N 37°56' E 023°34'0 0.0
2017-Apr-16 12:30N 37°56' E 023°34'0 0.0
2017-Apr-16 12:00N 37°56' E 023°34'0 0.0
2017-Apr-16 11:30N 37°56' E 023°34'0 0.0
2017-Apr-16 11:00N 37°56' E 023°34'0 0.0
2017-Apr-16 10:30N 37°56' E 023°34'0 0.0
2017-Apr-16 10:00N 37°56' E 023°34'0 0.0
2017-Apr-16 09:30N 37°56' E 023°34'0 0.0
2017-Apr-16 09:00N 37°56' E 023°34'0 0.0
2017-Apr-16 08:30N 37°56' E 023°34'0 0.0
2017-Apr-16 08:00N 37°56' E 023°34'0 0.0
2017-Apr-16 07:30N 37°56' E 023°34'0 0.0
2017-Apr-16 07:00N 37°56' E 023°34'0 0.1
2017-Apr-16 06:30N 37°56' E 023°34'0 0.1
2017-Apr-16 06:00N 37°56' E 023°34'0 0.1
2017-Apr-16 05:30N 37°56' E 023°34'0 0.1
2017-Apr-16 05:00N 37°56' E 023°34'1 1.4
2017-Apr-16 04:30N 37°55' E 023°34'3 5.4
2017-Apr-16 04:00N 37°53' E 023°32'0 0.0
2017-Apr-16 03:30N 37°53' E 023°32'0 0.0
2017-Apr-16 03:00N 37°53' E 023°33'0 0.1
2017-Apr-16 02:30N 37°53' E 023°32'0 0.0
2017-Apr-16 02:00N 37°53' E 023°32'0 0.0
2017-Apr-16 01:30N 37°53' E 023°32'0 0.0
2017-Apr-16 01:00N 37°53' E 023°32'1 1.7
2017-Apr-16 00:30N 37°53' E 023°33'2 5.0
2017-Apr-16 00:00N 37°56' E 023°34'0 0.2
2017-Apr-15 23:30N 37°56' E 023°34'0 0.1
2017-Apr-15 23:00N 37°56' E 023°34'0 0.0
2017-Apr-15 22:30N 37°56' E 023°34'0 0.0
2017-Apr-15 22:00N 37°56' E 023°34'0 0.0
2017-Apr-15 21:30N 37°56' E 023°34'0 0.0
2017-Apr-15 21:00N 37°56' E 023°34'0 0.0
2017-Apr-15 20:30N 37°56' E 023°34'0 0.0
2017-Apr-15 20:00N 37°56' E 023°34'0 0.0
2017-Apr-15 19:30N 37°56' E 023°34'0 0.0
2017-Apr-15 19:00N 37°56' E 023°34'0 0.0
2017-Apr-15 18:30N 37°56' E 023°34'0 0.1
2017-Apr-15 18:00N 37°56' E 023°34'0 0.1
2017-Apr-15 17:30N 37°56' E 023°34'0 0.0
2017-Apr-15 17:00N 37°56' E 023°34'0 0.0
2017-Apr-15 16:30N 37°56' E 023°34'0 0.0
2017-Apr-15 16:00N 37°56' E 023°34'0 0.0
2017-Apr-15 15:30N 37°56' E 023°34'0 0.0
2017-Apr-15 15:00N 37°56' E 023°34'0 0.0
2017-Apr-15 14:31N 37°56' E 023°34'0 0.0
2017-Apr-15 13:30N 37°56' E 023°34'0 0.0
2017-Apr-15 13:00N 37°56' E 023°34'0 0.0
2017-Apr-15 12:30N 37°56' E 023°34'0 0.0
2017-Apr-15 12:00N 37°56' E 023°34'0 0.0
2017-Apr-15 11:30N 37°56' E 023°34'0 0.0
2017-Apr-15 11:00N 37°56' E 023°34'0 0.0
2017-Apr-15 10:30N 37°56' E 023°34'0 0.0
2017-Apr-15 10:00N 37°56' E 023°34'0 0.0
2017-Apr-15 09:30N 37°56' E 023°34'0 0.0
2017-Apr-15 09:00N 37°56' E 023°34'0 0.0
2017-Apr-15 08:30N 37°56' E 023°34'0 0.0
2017-Apr-15 08:00N 37°56' E 023°34'0 0.1
2017-Apr-15 07:30N 37°56' E 023°34'0 0.1
2017-Apr-15 07:00N 37°56' E 023°34'0 0.0
2017-Apr-15 06:30N 37°56' E 023°34'0 0.0
2017-Apr-15 06:00N 37°56' E 023°34'0 0.0
2017-Apr-15 05:30N 37°56' E 023°34'0 0.0
2017-Apr-15 05:00N 37°56' E 023°34'0 0.0
2017-Apr-15 04:30N 37°56' E 023°34'0 0.0
2017-Apr-15 04:00N 37°56' E 023°34'0 0.0
2017-Apr-15 03:30N 37°56' E 023°34'0 0.0
2017-Apr-15 03:00N 37°56' E 023°34'0 0.0
2017-Apr-15 02:30N 37°56' E 023°34'0 0.0
2017-Apr-15 02:00N 37°56' E 023°34'0 0.0
2017-Apr-15 01:30N 37°56' E 023°34'0 0.0
2017-Apr-15 01:00N 37°56' E 023°34'0 0.0
2017-Apr-15 00:30N 37°56' E 023°34'0 0.0
2017-Apr-15 00:01N 37°56' E 023°34'0 0.0
2017-Apr-14 23:30N 37°56' E 023°34'0 0.0
2017-Apr-14 23:00N 37°56' E 023°34'0 0.0
2017-Apr-14 22:30N 37°56' E 023°34'0 0.0
2017-Apr-14 22:00N 37°56' E 023°34'0 0.0
2017-Apr-14 21:30N 37°56' E 023°34'0 0.0
2017-Apr-14 21:00N 37°56' E 023°34'0 0.0
2017-Apr-14 20:30N 37°56' E 023°34'0 0.0
2017-Apr-14 20:00N 37°56' E 023°34'0 0.1
2017-Apr-14 19:30N 37°56' E 023°34'0 0.0
2017-Apr-14 19:00N 37°56' E 023°34'0 0.0
2017-Apr-14 18:30N 37°56' E 023°34'0 0.0
2017-Apr-14 18:01N 37°56' E 023°34'0 0.0
2017-Apr-14 17:30N 37°56' E 023°34'0 0.0
2017-Apr-14 17:00N 37°56' E 023°34'0 0.0
2017-Apr-14 16:30N 37°56' E 023°34'0 0.0
2017-Apr-14 16:00N 37°56' E 023°34'0 0.0
2017-Apr-14 15:30N 37°56' E 023°34'0 0.1
2017-Apr-14 15:00N 37°56' E 023°34'2 4.8
2017-Apr-14 14:30N 37°58' E 023°33'4 4.4
2017-Apr-14 13:30N 38°02' E 023°36'0 0.0
2017-Apr-14 13:00N 38°02' E 023°36'0 0.0
2017-Apr-14 12:31N 38°02' E 023°36'0 0.0
2017-Apr-14 12:00N 38°02' E 023°36'0 0.0
2017-Apr-14 11:30N 38°02' E 023°36'0 0.0
2017-Apr-14 11:00N 38°02' E 023°36'0 0.0
2017-Apr-14 10:30N 38°02' E 023°36'0 0.0
2017-Apr-14 10:00N 38°02' E 023°36'0 0.0
2017-Apr-14 09:30N 38°02' E 023°36'0 0.0
2017-Apr-14 09:00N 38°02' E 023°36'0 0.0
2017-Apr-14 08:30N 38°02' E 023°36'0 0.0
2017-Apr-14 08:00N 38°02' E 023°36'0 0.0
2017-Apr-14 07:30N 38°02' E 023°36'0 0.0
2017-Apr-14 07:01N 38°02' E 023°36'0 0.0
2017-Apr-14 06:30N 38°02' E 023°36'0 0.0
2017-Apr-14 06:00N 38°02' E 023°36'0 0.0
2017-Apr-14 05:30N 38°02' E 023°36'0 0.0
2017-Apr-14 05:00N 38°02' E 023°36'0 0.0
2017-Apr-14 04:30N 38°02' E 023°36'1 2.2
2017-Apr-14 04:00N 38°01' E 023°35'4 7.6
2017-Apr-14 03:30N 37°57' E 023°34'2 3.9
2017-Apr-14 03:00N 37°55' E 023°33'0 0.6
2017-Apr-14 02:30N 37°55' E 023°33'0 0.0
2017-Apr-14 02:00N 37°55' E 023°33'0 0.0
2017-Apr-14 01:30N 37°55' E 023°33'0 0.0
2017-Apr-14 01:00N 37°55' E 023°33'0 0.0
2017-Apr-14 00:30N 37°55' E 023°33'0 0.0
2017-Apr-14 00:01N 37°55' E 023°33'  
Track history (hours):
 
Tides and Currents Weather Stations Pressure Air Temp Water Temp Dewpoint Dewpoint Depression Visibility Wind Speed Wind Dir Waves Ship Positions

Menalon

Last reported at 2017-Apr-23 23:39 UTC. Time now 2017-Apr-25 16:32 UTC.
Position N 37°32' E 023°42'.

Length 83 m; draft 5 m.

Type: Ship (hazmat cat C). MMSI: 239741000.

Date/timePositionNaut miles runAvg speedWind from/ knotsBaromVisibWave heightAir tempDewpointWater temp
2017-Apr-23 23:39N 37°32' E 023°42'3 9.9
2017-Apr-23 23:20N 37°36' E 023°42'3 9.9
2017-Apr-23 23:00N 37°39' E 023°42'5 9.6
2017-Apr-23 22:30N 37°43' E 023°40'5 9.6
2017-Apr-23 22:00N 37°48' E 023°38'4 8.6
2017-Apr-23 21:30N 37°50' E 023°33'5 9.4
2017-Apr-23 21:00N 37°51' E 023°27'5 9.3
2017-Apr-23 20:30N 37°54' E 023°23'4 8.7
2017-Apr-23 20:00N 37°58' E 023°25'3 6.2
2017-Apr-23 19:30N 38°00' E 023°28'3 6.0
2017-Apr-23 19:00N 38°01' E 023°31'0 0.0
2017-Apr-23 18:30N 38°01' E 023°31'0 0.0
2017-Apr-23 18:00N 38°01' E 023°31'0 0.0
2017-Apr-23 17:30N 38°01' E 023°31'0 0.1
2017-Apr-23 17:00N 38°01' E 023°31'0 0.0
2017-Apr-23 16:30N 38°01' E 023°31'0 0.1
2017-Apr-23 16:00N 38°01' E 023°31'0 0.0
2017-Apr-23 15:30N 38°01' E 023°31'0 0.0
2017-Apr-23 15:00N 38°01' E 023°31'1 0.8
2017-Apr-23 14:00N 38°02' E 023°32'0 0.0
2017-Apr-23 13:30N 38°02' E 023°32'0 0.0
2017-Apr-23 13:00N 38°02' E 023°32'0 0.0
2017-Apr-23 12:30N 38°02' E 023°32'0 0.0
2017-Apr-23 12:00N 38°02' E 023°32'0 0.0
2017-Apr-23 11:30N 38°02' E 023°32'0 0.0
2017-Apr-23 11:00N 38°02' E 023°32'0 0.0
2017-Apr-23 10:30N 38°02' E 023°32'0 0.0
2017-Apr-23 10:00N 38°02' E 023°32'0 0.0
2017-Apr-23 09:30N 38°02' E 023°32'0 0.0
2017-Apr-23 09:00N 38°02' E 023°32'0 0.0
2017-Apr-23 08:30N 38°02' E 023°32'0 0.0
2017-Apr-23 08:00N 38°02' E 023°32'0 0.0
2017-Apr-23 07:30N 38°02' E 023°32'0 0.2
2017-Apr-23 07:00N 38°02' E 023°32'0 0.1
2017-Apr-23 06:31N 38°02' E 023°32'0 0.1
2017-Apr-23 06:00N 38°02' E 023°32'0 0.0
2017-Apr-23 05:30N 38°02' E 023°32'0 0.0
2017-Apr-23 05:00N 38°02' E 023°32'0 0.1
2017-Apr-23 04:30N 38°02' E 023°32'0 0.0
2017-Apr-23 04:00N 38°02' E 023°32'0 0.0
2017-Apr-23 03:30N 38°02' E 023°32'0 0.0
2017-Apr-23 03:00N 38°02' E 023°32'0 0.0
2017-Apr-23 02:31N 38°02' E 023°32'0 0.0
2017-Apr-23 02:00N 38°02' E 023°32'0 0.0
2017-Apr-23 01:30N 38°02' E 023°32'0 0.0
2017-Apr-23 01:01N 38°02' E 023°32'0 0.0
2017-Apr-23 00:30N 38°02' E 023°32'0 0.0
2017-Apr-23 00:01N 38°02' E 023°32'0 0.0
2017-Apr-22 23:30N 38°02' E 023°32'0 0.0
2017-Apr-22 23:00N 38°02' E 023°32'0 0.0
2017-Apr-22 22:30N 38°02' E 023°32'0 0.0
2017-Apr-22 22:00N 38°02' E 023°32'0 0.0
2017-Apr-22 21:30N 38°02' E 023°32'0 0.0
2017-Apr-22 21:00N 38°02' E 023°32'0 0.1
2017-Apr-22 20:30N 38°02' E 023°32'0 0.1
2017-Apr-22 20:00N 38°02' E 023°32'0 0.0
2017-Apr-22 19:30N 38°02' E 023°32'0 0.0
2017-Apr-22 19:01N 38°02' E 023°32'0 0.0
2017-Apr-22 18:30N 38°02' E 023°32'0 0.0
2017-Apr-22 18:00N 38°02' E 023°32'0 0.0
2017-Apr-22 17:30N 38°02' E 023°32'0 0.0
2017-Apr-22 17:00N 38°02' E 023°32'0 0.1
2017-Apr-22 16:30N 38°02' E 023°32'0 0.2
2017-Apr-22 16:01N 38°02' E 023°32'0 0.0
2017-Apr-22 15:31N 38°02' E 023°32'0 0.0
2017-Apr-22 15:00N 38°02' E 023°32'0 0.0
2017-Apr-22 14:30N 38°02' E 023°32'1 1.3
2017-Apr-22 13:30N 38°01' E 023°34'2 3.4
2017-Apr-22 13:00N 38°02' E 023°36'0 0.0
2017-Apr-22 12:30N 38°02' E 023°36'0 0.0
2017-Apr-22 12:00N 38°02' E 023°36'0 0.0
2017-Apr-22 11:30N 38°02' E 023°36'0 0.0
2017-Apr-22 11:00N 38°02' E 023°36'0 0.0
2017-Apr-22 10:30N 38°02' E 023°36'0 0.0
2017-Apr-22 10:00N 38°02' E 023°36'0 0.0
2017-Apr-22 09:30N 38°02' E 023°36'0 0.0
2017-Apr-22 09:00N 38°02' E 023°36'0 0.0
2017-Apr-22 08:31N 38°02' E 023°36'0 0.0
2017-Apr-22 08:01N 38°02' E 023°36'0 0.0
2017-Apr-22 07:30N 38°02' E 023°36'0 0.0
2017-Apr-22 07:00N 38°02' E 023°36'0 0.0
2017-Apr-22 06:30N 38°02' E 023°36'0 0.0
2017-Apr-22 06:00N 38°02' E 023°36'0 0.0
2017-Apr-22 05:30N 38°02' E 023°36'0 0.0
2017-Apr-22 05:00N 38°02' E 023°36'0 0.9
2017-Apr-22 04:30N 38°02' E 023°35'0 0.1
2017-Apr-22 04:00N 38°02' E 023°35'2 4.0
2017-Apr-22 03:30N 38°00' E 023°33'4 7.1
2017-Apr-22 03:00N 37°57' E 023°35'1 2.0
2017-Apr-22 02:30N 37°58' E 023°36'0 0.0
2017-Apr-22 02:00N 37°58' E 023°36'0 0.0
2017-Apr-22 01:30N 37°58' E 023°36'0 0.0
2017-Apr-22 01:00N 37°58' E 023°36'0 0.0
2017-Apr-22 00:30N 37°58' E 023°36'0 0.0
2017-Apr-22 00:00N 37°58' E 023°36'0 0.0
2017-Apr-21 23:30N 37°58' E 023°36'0 0.2
2017-Apr-21 23:00N 37°57' E 023°36'3 5.2
2017-Apr-21 22:30N 37°56' E 023°34'5 9.8
2017-Apr-21 22:00N 37°52' E 023°29'4 8.9
2017-Apr-21 21:31N 37°53' E 023°24'4 8.2
2017-Apr-21 21:00N 37°57' E 023°24'4 7.4
2017-Apr-21 20:30N 38°00' E 023°27'3 5.7
2017-Apr-21 20:01N 38°01' E 023°31'0 0.0
2017-Apr-21 19:30N 38°01' E 023°31'0 0.0
2017-Apr-21 19:00N 38°01' E 023°31'0 0.1
2017-Apr-21 18:30N 38°01' E 023°31'0 0.1
2017-Apr-21 18:00N 38°01' E 023°31'0 0.1
2017-Apr-21 17:30N 38°01' E 023°31'0 0.1
2017-Apr-21 17:00N 38°01' E 023°31'0 0.0
2017-Apr-21 16:30N 38°01' E 023°31'0 0.0
2017-Apr-21 16:00N 38°01' E 023°31'0 0.0
2017-Apr-21 15:30N 38°01' E 023°31'0 0.0
2017-Apr-21 15:00N 38°01' E 023°31'0 0.3
2017-Apr-21 14:30N 38°01' E 023°31'1 0.9
2017-Apr-21 13:30N 38°01' E 023°32'0 0.0
2017-Apr-21 13:00N 38°01' E 023°32'0 0.0
2017-Apr-21 12:30N 38°01' E 023°32'0 0.1
2017-Apr-21 12:00N 38°01' E 023°32'0 0.0
2017-Apr-21 11:30N 38°01' E 023°32'0 0.1
2017-Apr-21 11:00N 38°01' E 023°32'0 0.0
2017-Apr-21 10:30N 38°01' E 023°32'0 0.0
2017-Apr-21 10:00N 38°01' E 023°32'0 0.0
2017-Apr-21 09:30N 38°01' E 023°32'0 0.1
2017-Apr-21 09:00N 38°01' E 023°32'4 7.9
2017-Apr-21 08:30N 37°57' E 023°34'2 3.2
2017-Apr-21 08:00N 37°56' E 023°34'0 0.0
2017-Apr-21 07:30N 37°56' E 023°34'0 0.0
2017-Apr-21 07:00N 37°56' E 023°34'0 0.0
2017-Apr-21 06:30N 37°56' E 023°34'0 0.0
2017-Apr-21 06:00N 37°56' E 023°34'0 0.0
2017-Apr-21 05:30N 37°56' E 023°34'0 0.0
2017-Apr-21 05:00N 37°56' E 023°34'0 0.0
2017-Apr-21 04:30N 37°56' E 023°34'0 0.0
2017-Apr-21 04:00N 37°56' E 023°34'0 0.0
2017-Apr-21 03:30N 37°56' E 023°34'0 0.0
2017-Apr-21 03:00N 37°56' E 023°34'0 0.0
2017-Apr-21 02:30N 37°56' E 023°34'0 0.0
2017-Apr-21 02:00N 37°56' E 023°34'0 0.0
2017-Apr-21 01:30N 37°56' E 023°34'0 0.0
2017-Apr-21 01:00N 37°56' E 023°34'0 0.0
2017-Apr-21 00:30N 37°56' E 023°34'0 0.0
2017-Apr-21 00:00N 37°56' E 023°34'0 0.0
2017-Apr-20 23:30N 37°56' E 023°34'0 0.0
2017-Apr-20 23:00N 37°56' E 023°34'0 0.0
2017-Apr-20 22:30N 37°56' E 023°34'0 0.0
2017-Apr-20 22:00N 37°56' E 023°34'0 0.0
2017-Apr-20 21:31N 37°56' E 023°34'0 0.0
2017-Apr-20 21:00N 37°56' E 023°34'0 0.0
2017-Apr-20 20:30N 37°56' E 023°34'0 0.0
2017-Apr-20 20:00N 37°56' E 023°34'0 0.0
2017-Apr-20 19:30N 37°56' E 023°34'0 0.0
2017-Apr-20 19:00N 37°56' E 023°34'0 0.0
2017-Apr-20 18:30N 37°56' E 023°34'0 0.0
2017-Apr-20 18:00N 37°56' E 023°34'0 0.0
2017-Apr-20 17:30N 37°56' E 023°34'0 0.1
2017-Apr-20 17:00N 37°56' E 023°34'0 0.1
2017-Apr-20 16:30N 37°56' E 023°34'0 0.0
2017-Apr-20 16:00N 37°56' E 023°34'0 0.0
2017-Apr-20 15:30N 37°56' E 023°34'0 0.0
2017-Apr-20 15:00N 37°56' E 023°34'0 0.0
2017-Apr-20 14:30N 37°56' E 023°34'0 0.0
2017-Apr-20 13:30N 37°56' E 023°34'0 0.0
2017-Apr-20 13:00N 37°56' E 023°34'0 0.0
2017-Apr-20 12:30N 37°56' E 023°34'0 0.0
2017-Apr-20 12:00N 37°56' E 023°34'0 0.0
2017-Apr-20 11:30N 37°56' E 023°34'0 0.0
2017-Apr-20 11:00N 37°56' E 023°34'0 0.1
2017-Apr-20 10:30N 37°56' E 023°34'3 5.7
2017-Apr-20 10:00N 37°53' E 023°33'1 1.6
2017-Apr-20 09:30N 37°52' E 023°33'0 0.4
2017-Apr-20 09:00N 37°52' E 023°33'0 0.0
2017-Apr-20 08:30N 37°52' E 023°33'0 0.0
2017-Apr-20 08:00N 37°52' E 023°33'0 0.0
2017-Apr-20 07:30N 37°52' E 023°33'0 0.3
2017-Apr-20 07:00N 37°52' E 023°33'0 0.2
2017-Apr-20 06:30N 37°52' E 023°33'3 6.5
2017-Apr-20 06:00N 37°52' E 023°28'5 9.5
2017-Apr-20 05:30N 37°52' E 023°22'5 9.3
2017-Apr-20 05:00N 37°53' E 023°17'5 9.5
2017-Apr-20 04:30N 37°54' E 023°11'4 8.6
2017-Apr-20 04:00N 37°55' E 023°05'0 0.2
2017-Apr-20 03:30N 37°55' E 023°05'0 0.0
2017-Apr-20 02:59N 37°55' E 023°05'0 0.0
2017-Apr-20 02:30N 37°55' E 023°05'0 0.0
2017-Apr-20 02:00N 37°55' E 023°05'0 0.0
2017-Apr-20 01:30N 37°55' E 023°05'0 0.0
2017-Apr-20 01:00N 37°55' E 023°05'0 0.0
2017-Apr-20 00:30N 37°55' E 023°05'0 0.0
2017-Apr-20 00:00N 37°55' E 023°05'0 0.0
2017-Apr-19 23:30N 37°55' E 023°05'0 0.0
2017-Apr-19 23:00N 37°55' E 023°05'0 0.0
2017-Apr-19 22:30N 37°55' E 023°05'0 0.0
2017-Apr-19 22:00N 37°55' E 023°05'0 0.0
2017-Apr-19 21:30N 37°55' E 023°05'0 0.0
2017-Apr-19 21:00N 37°55' E 023°05'0 0.0
2017-Apr-19 20:30N 37°55' E 023°05'0 0.0
2017-Apr-19 20:00N 37°55' E 023°05'0 0.0
2017-Apr-19 19:30N 37°55' E 023°05'0 0.0
2017-Apr-19 19:00N 37°55' E 023°05'0 0.0
2017-Apr-19 18:30N 37°55' E 023°05'0 0.0
2017-Apr-19 18:00N 37°55' E 023°05'0 0.0
2017-Apr-19 17:28N 37°55' E 023°05'0 0.0
2017-Apr-19 17:00N 37°55' E 023°05'1 1.2
2017-Apr-19 16:30N 37°55' E 023°06'5 9.3
2017-Apr-19 16:00N 37°55' E 023°12'510.2
2017-Apr-19 15:30N 37°54' E 023°18'510.2
2017-Apr-19 15:00N 37°53' E 023°24'5 9.1
2017-Apr-19 14:30N 37°53' E 023°30'6 5.8
2017-Apr-19 13:30N 37°57' E 023°35'0 0.0
2017-Apr-19 13:00N 37°57' E 023°35'0 0.0
2017-Apr-19 12:30N 37°57' E 023°35'0 0.0
2017-Apr-19 12:00N 37°57' E 023°35'0 0.0
2017-Apr-19 11:30N 37°57' E 023°35'0 0.0
2017-Apr-19 11:00N 37°57' E 023°35'0 0.0
2017-Apr-19 10:30N 37°57' E 023°35'0 0.0
2017-Apr-19 10:00N 37°57' E 023°35'0 0.0
2017-Apr-19 09:30N 37°57' E 023°35'0 0.0
2017-Apr-19 09:00N 37°57' E 023°35'0 0.1
2017-Apr-19 08:30N 37°57' E 023°35'0 0.1
2017-Apr-19 08:00N 37°57' E 023°35'0 0.0
2017-Apr-19 07:30N 37°57' E 023°35'0 0.2
2017-Apr-19 07:00N 37°57' E 023°35'0 0.2
2017-Apr-19 06:30N 37°57' E 023°35'0 0.0
2017-Apr-19 06:00N 37°57' E 023°35'1 1.5
2017-Apr-19 05:30N 37°57' E 023°35'1 3.0
2017-Apr-19 05:00N 37°56' E 023°33'0 0.0
2017-Apr-19 04:30N 37°56' E 023°33'0 0.0
2017-Apr-19 04:00N 37°56' E 023°33'0 0.0
2017-Apr-19 03:30N 37°56' E 023°33'0 0.0
2017-Apr-19 03:00N 37°56' E 023°33'0 0.0
2017-Apr-19 02:30N 37°56' E 023°33'0 0.0
2017-Apr-19 02:00N 37°56' E 023°33'0 0.0
2017-Apr-19 01:30N 37°56' E 023°33'0 0.0
2017-Apr-19 01:00N 37°56' E 023°33'0 0.0
2017-Apr-19 00:30N 37°56' E 023°33'0 0.0
2017-Apr-19 00:00N 37°56' E 023°33'0 0.0
2017-Apr-18 23:30N 37°56' E 023°33'0 0.0
2017-Apr-18 23:00N 37°56' E 023°33'0 0.0
2017-Apr-18 22:30N 37°56' E 023°33'0 0.0
2017-Apr-18 22:00N 37°56' E 023°33'0 0.0
2017-Apr-18 21:30N 37°56' E 023°33'0 0.0
2017-Apr-18 21:00N 37°56' E 023°33'0 0.0
2017-Apr-18 20:30N 37°56' E 023°33'0 0.0
2017-Apr-18 20:00N 37°56' E 023°33'0 0.0
2017-Apr-18 19:30N 37°56' E 023°33'0 0.0
2017-Apr-18 19:00N 37°56' E 023°33'0 0.0
2017-Apr-18 18:30N 37°56' E 023°33'0 0.0
2017-Apr-18 18:01N 37°56' E 023°33'0 0.0
2017-Apr-18 17:30N 37°56' E 023°33'0 0.0
2017-Apr-18 17:00N 37°56' E 023°33'0 0.0
2017-Apr-18 16:30N 37°56' E 023°33'0 0.0
2017-Apr-18 16:00N 37°56' E 023°33'0 0.0
2017-Apr-18 15:30N 37°56' E 023°33'0 0.0
2017-Apr-18 15:00N 37°56' E 023°33'0 0.0
2017-Apr-18 14:30N 37°56' E 023°33'0 0.0
2017-Apr-18 13:30N 37°56' E 023°33'0 0.0
2017-Apr-18 13:00N 37°56' E 023°33'0 0.0
2017-Apr-18 12:30N 37°56' E 023°33'0 0.0
2017-Apr-18 12:00N 37°56' E 023°33'0 0.0
2017-Apr-18 11:30N 37°56' E 023°33'0 0.0
2017-Apr-18 11:00N 37°56' E 023°33'0 0.0
2017-Apr-18 10:30N 37°56' E 023°33'0 0.1
2017-Apr-18 10:00N 37°56' E 023°33'2 3.0
2017-Apr-18 09:30N 37°57' E 023°35'1 2.9
2017-Apr-18 09:00N 37°58' E 023°36'0 0.0
2017-Apr-18 08:30N 37°58' E 023°36'0 0.0
2017-Apr-18 08:00N 37°58' E 023°36'0 0.0
2017-Apr-18 07:30N 37°58' E 023°36'0 0.0
2017-Apr-18 07:00N 37°58' E 023°36'0 0.0
2017-Apr-18 06:30N 37°58' E 023°36'0 0.0
2017-Apr-18 06:00N 37°58' E 023°36'1 1.2
2017-Apr-18 05:30N 37°57' E 023°36'1 2.1
2017-Apr-18 05:00N 37°57' E 023°35'1 1.6
2017-Apr-18 04:31N 37°56' E 023°34'0 0.0
2017-Apr-18 04:00N 37°56' E 023°34'0 0.0
2017-Apr-18 03:31N 37°56' E 023°34'0 0.1
2017-Apr-18 03:00N 37°56' E 023°34'0 0.0
2017-Apr-18 02:30N 37°56' E 023°34'0 0.0
2017-Apr-18 02:00N 37°56' E 023°34'0 0.0
2017-Apr-18 01:30N 37°56' E 023°34'0 0.0
2017-Apr-18 01:00N 37°56' E 023°34'0 0.0
2017-Apr-18 00:30N 37°56' E 023°34'0 0.0
2017-Apr-18 00:00N 37°56' E 023°34'0 0.0
2017-Apr-17 23:30N 37°56' E 023°34'0 0.0
2017-Apr-17 23:00N 37°56' E 023°34'0 0.0
2017-Apr-17 22:30N 37°56' E 023°34'0 0.1
2017-Apr-17 22:00N 37°56' E 023°34'0 0.1
2017-Apr-17 21:30N 37°56' E 023°34'0 0.0
2017-Apr-17 21:00N 37°56' E 023°34'0 0.0
2017-Apr-17 20:30N 37°56' E 023°34'0 0.0
2017-Apr-17 20:00N 37°56' E 023°34'0 0.0
2017-Apr-17 19:30N 37°56' E 023°34'0 0.0
2017-Apr-17 19:00N 37°56' E 023°34'0 0.0
2017-Apr-17 18:30N 37°56' E 023°34'0 0.0
2017-Apr-17 18:00N 37°56' E 023°34'0 0.0
2017-Apr-17 17:30N 37°56' E 023°34'0 0.1
2017-Apr-17 17:00N 37°56' E 023°34'0 0.0
2017-Apr-17 16:30N 37°56' E 023°34'0 0.0
2017-Apr-17 16:00N 37°56' E 023°34'0 0.0
2017-Apr-17 15:30N 37°56' E 023°34'0 0.1
2017-Apr-17 15:00N 37°56' E 023°34'0 0.1
2017-Apr-17 14:30N 37°56' E 023°34'0 0.0
2017-Apr-17 13:30N 37°56' E 023°34'0 0.6
2017-Apr-17 13:01N 37°56' E 023°34'4 8.2
2017-Apr-17 12:30N 37°52' E 023°31'1 1.2
2017-Apr-17 12:00N 37°52' E 023°31'0 0.0
2017-Apr-17 11:30N 37°52' E 023°31'0 0.0
2017-Apr-17 11:00N 37°52' E 023°31'0 0.0
2017-Apr-17 10:30N 37°52' E 023°31'0 0.0
2017-Apr-17 10:00N 37°52' E 023°31'0 0.0
2017-Apr-17 09:30N 37°52' E 023°31'0 0.0
2017-Apr-17 09:00N 37°52' E 023°31'0 0.0
2017-Apr-17 08:30N 37°52' E 023°31'0 0.0
2017-Apr-17 08:00N 37°52' E 023°31'0 0.0
2017-Apr-17 07:30N 37°52' E 023°31'0 0.0
2017-Apr-17 07:00N 37°52' E 023°31'0 0.0
2017-Apr-17 06:30N 37°52' E 023°31'0 0.0
2017-Apr-17 06:00N 37°52' E 023°31'1 2.8
2017-Apr-17 05:30N 37°53' E 023°32'4 7.3
2017-Apr-17 05:00N 37°56' E 023°34'0 0.1
2017-Apr-17 04:30N 37°56' E 023°34'0 0.0
2017-Apr-17 04:00N 37°56' E 023°34'0 0.0
2017-Apr-17 03:30N 37°56' E 023°34'0 0.0
2017-Apr-17 03:00N 37°56' E 023°34'0 0.0
2017-Apr-17 02:30N 37°56' E 023°34'0 0.0
2017-Apr-17 02:00N 37°56' E 023°34'0 0.1
2017-Apr-17 01:30N 37°56' E 023°34'0 0.0
2017-Apr-17 01:00N 37°56' E 023°34'0 0.0
2017-Apr-17 00:30N 37°56' E 023°34'0 0.0
2017-Apr-17 00:00N 37°56' E 023°34'0 0.1
2017-Apr-16 23:30N 37°56' E 023°34'0 0.1
2017-Apr-16 23:00N 37°56' E 023°34'0 0.1
2017-Apr-16 22:30N 37°56' E 023°34'0 0.0
2017-Apr-16 22:00N 37°56' E 023°34'0 0.0
2017-Apr-16 21:30N 37°56' E 023°34'0 0.0
2017-Apr-16 21:00N 37°56' E 023°34'0 0.0
2017-Apr-16 20:30N 37°56' E 023°34'0 0.0
2017-Apr-16 20:00N 37°56' E 023°34'0 0.0
2017-Apr-16 19:30N 37°56' E 023°34'0 0.0
2017-Apr-16 19:00N 37°56' E 023°34'0 0.0
2017-Apr-16 18:30N 37°56' E 023°34'0 0.0
2017-Apr-16 18:00N 37°56' E 023°34'0 0.0
2017-Apr-16 17:30N 37°56' E 023°34'0 0.0
2017-Apr-16 16:59N 37°56' E 023°34'0 0.0
2017-Apr-16 16:31N 37°56' E 023°34'0 0.0
2017-Apr-16 16:00N 37°56' E 023°34'0 0.0
2017-Apr-16 15:29N 37°56' E 023°34'0 0.0
2017-Apr-16 15:00N 37°56' E 023°34'0 0.0
2017-Apr-16 14:30N 37°56' E 023°34'0 0.0
2017-Apr-16 13:30N 37°56' E 023°34'0 0.0
2017-Apr-16 13:00N 37°56' E 023°34'0 0.0
2017-Apr-16 12:30N 37°56' E 023°34'0 0.0
2017-Apr-16 12:00N 37°56' E 023°34'0 0.0
2017-Apr-16 11:30N 37°56' E 023°34'0 0.0
2017-Apr-16 11:00N 37°56' E 023°34'0 0.0
2017-Apr-16 10:30N 37°56' E 023°34'0 0.0
2017-Apr-16 10:00N 37°56' E 023°34'0 0.0
2017-Apr-16 09:30N 37°56' E 023°34'0 0.0
2017-Apr-16 09:00N 37°56' E 023°34'0 0.0
2017-Apr-16 08:30N 37°56' E 023°34'0 0.0
2017-Apr-16 08:00N 37°56' E 023°34'0 0.0
2017-Apr-16 07:30N 37°56' E 023°34'0 0.0
2017-Apr-16 07:00N 37°56' E 023°34'0 0.1
2017-Apr-16 06:30N 37°56' E 023°34'0 0.1
2017-Apr-16 06:00N 37°56' E 023°34'0 0.1
2017-Apr-16 05:30N 37°56' E 023°34'0 0.1
2017-Apr-16 05:00N 37°56' E 023°34'1 1.4
2017-Apr-16 04:30N 37°55' E 023°34'3 5.4
2017-Apr-16 04:00N 37°53' E 023°32'0 0.0
2017-Apr-16 03:30N 37°53' E 023°32'0 0.0
2017-Apr-16 03:00N 37°53' E 023°33'0 0.1
2017-Apr-16 02:30N 37°53' E 023°32'0 0.0
2017-Apr-16 02:00N 37°53' E 023°32'0 0.0
2017-Apr-16 01:30N 37°53' E 023°32'0 0.0
2017-Apr-16 01:00N 37°53' E 023°32'1 1.7
2017-Apr-16 00:30N 37°53' E 023°33'2 5.0
2017-Apr-16 00:00N 37°56' E 023°34'0 0.2
2017-Apr-15 23:30N 37°56' E 023°34'0 0.1
2017-Apr-15 23:00N 37°56' E 023°34'0 0.0
2017-Apr-15 22:30N 37°56' E 023°34'0 0.0
2017-Apr-15 22:00N 37°56' E 023°34'0 0.0
2017-Apr-15 21:30N 37°56' E 023°34'0 0.0
2017-Apr-15 21:00N 37°56' E 023°34'0 0.0
2017-Apr-15 20:30N 37°56' E 023°34'0 0.0
2017-Apr-15 20:00N 37°56' E 023°34'0 0.0
2017-Apr-15 19:30N 37°56' E 023°34'0 0.0
2017-Apr-15 19:00N 37°56' E 023°34'0 0.0
2017-Apr-15 18:30N 37°56' E 023°34'0 0.1
2017-Apr-15 18:00N 37°56' E 023°34'0 0.1
2017-Apr-15 17:30N 37°56' E 023°34'0 0.0
2017-Apr-15 17:00N 37°56' E 023°34'0 0.0
2017-Apr-15 16:30N 37°56' E 023°34'0 0.0
2017-Apr-15 16:00N 37°56' E 023°34'0 0.0
2017-Apr-15 15:30N 37°56' E 023°34'0 0.0
2017-Apr-15 15:00N 37°56' E 023°34'0 0.0
2017-Apr-15 14:31N 37°56' E 023°34'0 0.0
2017-Apr-15 13:30N 37°56' E 023°34'0 0.0
2017-Apr-15 13:00N 37°56' E 023°34'0 0.0
2017-Apr-15 12:30N 37°56' E 023°34'0 0.0
2017-Apr-15 12:00N 37°56' E 023°34'0 0.0
2017-Apr-15 11:30N 37°56' E 023°34'0 0.0
2017-Apr-15 11:00N 37°56' E 023°34'0 0.0
2017-Apr-15 10:30N 37°56' E 023°34'0 0.0
2017-Apr-15 10:00N 37°56' E 023°34'0 0.0
2017-Apr-15 09:30N 37°56' E 023°34'0 0.0
2017-Apr-15 09:00N 37°56' E 023°34'0 0.0
2017-Apr-15 08:30N 37°56' E 023°34'0 0.0
2017-Apr-15 08:00N 37°56' E 023°34'0 0.1
2017-Apr-15 07:30N 37°56' E 023°34'0 0.1
2017-Apr-15 07:00N 37°56' E 023°34'0 0.0
2017-Apr-15 06:30N 37°56' E 023°34'0 0.0
2017-Apr-15 06:00N 37°56' E 023°34'0 0.0
2017-Apr-15 05:30N 37°56' E 023°34'0 0.0
2017-Apr-15 05:00N 37°56' E 023°34'0 0.0
2017-Apr-15 04:30N 37°56' E 023°34'0 0.0
2017-Apr-15 04:00N 37°56' E 023°34'0 0.0
2017-Apr-15 03:30N 37°56' E 023°34'0 0.0
2017-Apr-15 03:00N 37°56' E 023°34'0 0.0
2017-Apr-15 02:30N 37°56' E 023°34'0 0.0
2017-Apr-15 02:00N 37°56' E 023°34'0 0.0
2017-Apr-15 01:30N 37°56' E 023°34'0 0.0
2017-Apr-15 01:00N 37°56' E 023°34'0 0.0
2017-Apr-15 00:30N 37°56' E 023°34'0 0.0
2017-Apr-15 00:01N 37°56' E 023°34'0 0.0
2017-Apr-14 23:30N 37°56' E 023°34'0 0.0
2017-Apr-14 23:00N 37°56' E 023°34'0 0.0
2017-Apr-14 22:30N 37°56' E 023°34'0 0.0
2017-Apr-14 22:00N 37°56' E 023°34'0 0.0
2017-Apr-14 21:30N 37°56' E 023°34'0 0.0
2017-Apr-14 21:00N 37°56' E 023°34'0 0.0
2017-Apr-14 20:30N 37°56' E 023°34'0 0.0
2017-Apr-14 20:00N 37°56' E 023°34'0 0.1
2017-Apr-14 19:30N 37°56' E 023°34'0 0.0
2017-Apr-14 19:00N 37°56' E 023°34'0 0.0
2017-Apr-14 18:30N 37°56' E 023°34'0 0.0
2017-Apr-14 18:01N 37°56' E 023°34'0 0.0
2017-Apr-14 17:30N 37°56' E 023°34'0 0.0
2017-Apr-14 17:00N 37°56' E 023°34'0 0.0
2017-Apr-14 16:30N 37°56' E 023°34'0 0.0
2017-Apr-14 16:00N 37°56' E 023°34'0 0.0
2017-Apr-14 15:30N 37°56' E 023°34'0 0.1
2017-Apr-14 15:00N 37°56' E 023°34'2 4.8
2017-Apr-14 14:30N 37°58' E 023°33'4 4.4
2017-Apr-14 13:30N 38°02' E 023°36'0 0.0
2017-Apr-14 13:00N 38°02' E 023°36'0 0.0
2017-Apr-14 12:31N 38°02' E 023°36'0 0.0
2017-Apr-14 12:00N 38°02' E 023°36'0 0.0
2017-Apr-14 11:30N 38°02' E 023°36'0 0.0
2017-Apr-14 11:00N 38°02' E 023°36'0 0.0
2017-Apr-14 10:30N 38°02' E 023°36'0 0.0
2017-Apr-14 10:00N 38°02' E 023°36'0 0.0
2017-Apr-14 09:30N 38°02' E 023°36'0 0.0
2017-Apr-14 09:00N 38°02' E 023°36'0 0.0
2017-Apr-14 08:30N 38°02' E 023°36'0 0.0
2017-Apr-14 08:00N 38°02' E 023°36'0 0.0
2017-Apr-14 07:30N 38°02' E 023°36'0 0.0
2017-Apr-14 07:01N 38°02' E 023°36'0 0.0
2017-Apr-14 06:30N 38°02' E 023°36'0 0.0
2017-Apr-14 06:00N 38°02' E 023°36'0 0.0
2017-Apr-14 05:30N 38°02' E 023°36'0 0.0
2017-Apr-14 05:00N 38°02' E 023°36'0 0.0
2017-Apr-14 04:30N 38°02' E 023°36'1 2.2
2017-Apr-14 04:00N 38°01' E 023°35'4 7.6
2017-Apr-14 03:30N 37°57' E 023°34'2 3.9
2017-Apr-14 03:00N 37°55' E 023°33'0 0.6
2017-Apr-14 02:30N 37°55' E 023°33'0 0.0
2017-Apr-14 02:00N 37°55' E 023°33'0 0.0
2017-Apr-14 01:30N 37°55' E 023°33'0 0.0
2017-Apr-14 01:00N 37°55' E 023°33'0 0.0
2017-Apr-14 00:30N 37°55' E 023°33'0 0.0
2017-Apr-14 00:01N 37°55' E 023°33'  

Dump ship's entire track history